createdAt,value
2018-08-12T00:00:50.918Z,981.64
2018-08-12T00:01:51.157Z,981.63
2018-08-12T00:02:51.394Z,981.60
2018-08-12T00:03:51.634Z,981.68
2018-08-12T00:04:51.873Z,981.62
2018-08-12T00:05:52.119Z,981.62
2018-08-12T00:06:52.352Z,981.59
2018-08-12T00:07:52.591Z,981.59
2018-08-12T00:08:52.830Z,981.57
2018-08-12T00:09:53.070Z,981.59
2018-08-12T00:10:53.308Z,981.58
2018-08-12T00:11:53.548Z,981.58
2018-08-12T00:12:53.786Z,981.58
2018-08-12T00:13:54.025Z,981.54
2018-08-12T00:14:54.263Z,981.54
2018-08-12T00:15:54.501Z,981.54
2018-08-12T00:16:54.740Z,981.53
2018-08-12T00:17:54.979Z,981.55
2018-08-12T00:18:55.221Z,981.51
2018-08-12T00:19:55.457Z,981.54
2018-08-12T00:20:55.697Z,981.49
2018-08-12T00:21:55.935Z,981.50
2018-08-12T00:22:56.173Z,981.48
2018-08-12T00:23:56.412Z,981.49
2018-08-12T00:24:56.650Z,981.46
2018-08-12T00:25:56.890Z,981.47
2018-08-12T00:26:57.128Z,981.47
2018-08-12T00:27:57.371Z,981.49
2018-08-12T00:28:57.605Z,981.51
2018-08-12T00:29:57.845Z,981.45
2018-08-12T00:30:58.083Z,981.45
2018-08-12T00:31:58.322Z,981.44
2018-08-12T00:32:58.560Z,981.44
2018-08-12T00:33:58.799Z,981.43
2018-08-12T00:34:59.038Z,981.45
2018-08-12T00:35:59.276Z,981.46
2018-08-12T00:36:59.514Z,981.47
2018-08-12T00:37:59.752Z,981.44
2018-08-12T00:38:59.992Z,981.40
2018-08-12T00:40:00.235Z,981.41
2018-08-12T00:41:00.469Z,981.38
2018-08-12T00:42:00.713Z,981.39
2018-08-12T00:43:00.946Z,981.38
2018-08-12T00:44:01.187Z,981.37
2018-08-12T00:45:01.423Z,981.36
2018-08-12T00:46:01.660Z,981.35
2018-08-12T00:47:01.898Z,981.33
2018-08-12T00:48:02.137Z,981.35
2018-08-12T00:49:02.376Z,981.36
2018-08-12T00:50:02.614Z,981.34
2018-08-12T00:51:02.854Z,981.37
2018-08-12T00:52:03.092Z,981.33
2018-08-12T00:53:03.330Z,981.35
2018-08-12T00:54:03.570Z,981.38
2018-08-12T00:55:03.810Z,981.34
2018-08-12T00:56:04.047Z,981.36
2018-08-12T00:57:04.285Z,981.34
2018-08-12T00:58:04.523Z,981.31
2018-08-12T00:59:04.764Z,981.31
2018-08-12T01:00:05.003Z,981.25
2018-08-12T01:01:05.241Z,981.28
2018-08-12T01:02:05.478Z,981.27
2018-08-12T01:03:05.714Z,981.30
2018-08-12T01:04:05.953Z,981.28
2018-08-12T01:05:06.191Z,981.25
2018-08-12T01:06:06.431Z,981.22
2018-08-12T01:07:06.669Z,981.26
2018-08-12T01:08:06.906Z,981.24
2018-08-12T01:09:07.144Z,981.23
2018-08-12T01:10:07.380Z,981.18
2018-08-12T01:11:07.608Z,981.20
2018-08-12T01:12:07.855Z,981.21
2018-08-12T01:13:08.091Z,981.16
2018-08-12T01:14:08.329Z,981.19
2018-08-12T01:15:08.566Z,981.18
2018-08-12T01:16:08.803Z,981.18
2018-08-12T01:17:09.044Z,981.18
2018-08-12T01:18:09.277Z,981.17
2018-08-12T01:19:09.515Z,981.15
2018-08-12T01:20:09.758Z,981.18
2018-08-12T01:21:09.990Z,981.18
2018-08-12T01:22:10.227Z,981.13
2018-08-12T01:23:10.468Z,981.18
2018-08-12T01:24:10.703Z,981.13
2018-08-12T01:25:10.940Z,981.16
2018-08-12T01:26:11.179Z,981.14
2018-08-12T01:27:11.417Z,981.17
2018-08-12T01:28:11.653Z,981.18
2018-08-12T01:29:11.891Z,981.16
2018-08-12T01:30:12.129Z,981.14
2018-08-12T01:31:12.367Z,981.14
2018-08-12T01:32:12.607Z,981.12
2018-08-12T01:33:12.843Z,981.13
2018-08-12T01:34:13.086Z,981.13
2018-08-12T01:35:13.321Z,981.10
2018-08-12T01:36:13.557Z,981.12
2018-08-12T01:37:13.796Z,981.10
2018-08-12T01:38:14.036Z,981.10
2018-08-12T01:39:14.272Z,981.06
2018-08-12T01:40:14.508Z,981.07
2018-08-12T01:41:14.745Z,981.09
2018-08-12T01:42:14.983Z,981.10
2018-08-12T01:43:15.220Z,981.10
2018-08-12T01:44:15.461Z,981.07
2018-08-12T01:45:15.696Z,981.08
2018-08-12T01:46:15.933Z,981.08
2018-08-12T01:47:16.171Z,981.10
2018-08-12T01:48:16.409Z,981.05
2018-08-12T01:49:16.646Z,981.03
2018-08-12T01:50:16.884Z,981.04
2018-08-12T01:51:17.121Z,981.06
2018-08-12T01:52:17.359Z,981.04
2018-08-12T01:53:17.597Z,981.05
2018-08-12T01:54:17.835Z,981.05
2018-08-12T01:55:18.072Z,981.05
2018-08-12T01:56:18.312Z,981.03
2018-08-12T01:57:18.550Z,981.04
2018-08-12T01:58:18.787Z,981.05
2018-08-12T01:59:19.027Z,981.04
2018-08-12T02:00:19.263Z,981.02
2018-08-12T02:01:19.502Z,981.06
2018-08-12T02:02:19.738Z,981.03
2018-08-12T02:03:19.976Z,981.04
2018-08-12T02:04:20.212Z,981.06
2018-08-12T02:05:20.449Z,981.07
2018-08-12T02:06:20.686Z,981.05
2018-08-12T02:07:20.924Z,981.06
2018-08-12T02:08:21.162Z,981.07
2018-08-12T02:09:21.400Z,981.10
2018-08-12T02:10:21.640Z,981.08
2018-08-12T02:11:21.874Z,981.06
2018-08-12T02:12:22.113Z,981.03
2018-08-12T02:13:22.351Z,981.03
2018-08-12T02:14:22.589Z,981.02
2018-08-12T02:15:22.828Z,980.98
2018-08-12T02:16:23.064Z,980.96
2018-08-12T02:17:23.302Z,980.95
2018-08-12T02:18:23.540Z,980.94
2018-08-12T02:19:23.778Z,980.95
2018-08-12T02:20:24.017Z,980.92
2018-08-12T02:21:24.254Z,980.91
2018-08-12T02:22:24.492Z,980.93
2018-08-12T02:23:24.728Z,980.92
2018-08-12T02:24:24.964Z,980.87
2018-08-12T02:25:25.203Z,980.83
2018-08-12T02:26:25.440Z,980.81
2018-08-12T02:27:25.677Z,980.80
2018-08-12T02:28:25.914Z,980.81
2018-08-12T02:29:26.152Z,980.81
2018-08-12T02:30:26.389Z,980.80
2018-08-12T02:31:26.626Z,980.78
2018-08-12T02:32:26.867Z,980.76
2018-08-12T02:33:27.101Z,980.77
2018-08-12T02:34:27.339Z,980.74
2018-08-12T02:35:27.577Z,980.76
2018-08-12T02:36:27.813Z,980.75
2018-08-12T02:37:28.053Z,980.75
2018-08-12T02:38:28.289Z,980.71
2018-08-12T02:39:28.523Z,980.75
2018-08-12T02:40:28.762Z,980.73
2018-08-12T02:41:29.004Z,980.76
2018-08-12T02:42:29.235Z,980.72
2018-08-12T02:43:29.474Z,980.71
2018-08-12T02:44:29.714Z,980.72
2018-08-12T02:45:29.948Z,980.73
2018-08-12T02:46:30.184Z,980.71
2018-08-12T02:47:30.421Z,980.71
2018-08-12T02:48:30.656Z,980.67
2018-08-12T02:49:30.897Z,980.69
2018-08-12T02:50:31.132Z,980.66
2018-08-12T02:51:31.370Z,980.64
2018-08-12T02:52:31.609Z,980.64
2018-08-12T02:53:31.847Z,980.62
2018-08-12T02:54:32.084Z,980.60
2018-08-12T02:55:32.321Z,980.61
2018-08-12T02:56:32.560Z,980.59
2018-08-12T02:57:32.799Z,980.57
2018-08-12T02:58:33.037Z,980.55
2018-08-12T02:59:33.273Z,980.52
2018-08-12T03:00:33.510Z,980.53
2018-08-12T03:01:33.747Z,980.55
2018-08-12T03:02:33.985Z,980.54
2018-08-12T03:03:34.222Z,980.51
2018-08-12T03:04:34.459Z,980.51
2018-08-12T03:05:34.696Z,980.53
2018-08-12T03:06:34.934Z,980.50
2018-08-12T03:07:35.173Z,980.48
2018-08-12T03:08:35.410Z,980.48
2018-08-12T03:09:35.650Z,980.47
2018-08-12T03:10:35.887Z,980.44
2018-08-12T03:11:36.123Z,980.44
2018-08-12T03:12:36.359Z,980.43
2018-08-12T03:13:36.596Z,980.45
2018-08-12T03:14:36.833Z,980.45
2018-08-12T03:15:37.071Z,980.42
2018-08-12T03:16:37.309Z,980.40
2018-08-12T03:17:37.546Z,980.39
2018-08-12T03:18:37.785Z,980.40
2018-08-12T03:19:38.019Z,980.39
2018-08-12T03:20:38.259Z,980.39
2018-08-12T03:21:38.496Z,980.36
2018-08-12T03:22:38.735Z,980.37
2018-08-12T03:23:38.972Z,980.37
2018-08-12T03:24:39.210Z,980.35
2018-08-12T03:25:39.447Z,980.32
2018-08-12T03:26:39.686Z,980.31
2018-08-12T03:27:39.923Z,980.34
2018-08-12T03:28:40.162Z,980.32
2018-08-12T03:29:40.398Z,980.32
2018-08-12T03:30:40.636Z,980.30
2018-08-12T03:31:40.875Z,980.33
2018-08-12T03:32:41.111Z,980.34
2018-08-12T03:33:41.351Z,980.31
2018-08-12T03:34:41.589Z,980.34
2018-08-12T03:35:41.827Z,980.29
2018-08-12T03:36:42.065Z,980.30
2018-08-12T03:37:42.303Z,980.30
2018-08-12T03:38:42.540Z,980.27
2018-08-12T03:39:42.778Z,980.23
2018-08-12T03:40:43.015Z,980.21
2018-08-12T03:41:43.253Z,980.20
2018-08-12T03:42:43.491Z,980.19
2018-08-12T03:43:43.728Z,980.15
2018-08-12T03:44:43.967Z,980.18
2018-08-12T03:45:44.205Z,980.18
2018-08-12T03:46:44.442Z,980.14
2018-08-12T03:47:44.680Z,980.12
2018-08-12T03:48:44.970Z,980.13
2018-08-12T03:49:45.155Z,980.10
2018-08-12T03:50:45.395Z,980.08
2018-08-12T03:51:45.629Z,980.13
2018-08-12T03:52:45.867Z,980.12
2018-08-12T03:53:46.104Z,980.10
2018-08-12T03:54:46.341Z,980.15
2018-08-12T03:55:46.579Z,980.11
2018-08-12T03:56:46.814Z,980.12
2018-08-12T03:57:47.052Z,980.09
2018-08-12T03:58:47.289Z,980.06
2018-08-12T03:59:47.528Z,980.10
2018-08-12T04:00:47.764Z,980.09
2018-08-12T04:01:48.001Z,980.12
2018-08-12T04:02:48.238Z,980.10
2018-08-12T04:03:48.475Z,980.12
2018-08-12T04:04:48.713Z,980.07
2018-08-12T04:05:48.950Z,980.11
2018-08-12T04:06:49.187Z,980.07
2018-08-12T04:07:49.425Z,980.04
2018-08-12T04:08:49.664Z,980.04
2018-08-12T04:09:49.899Z,980.06
2018-08-12T04:10:50.136Z,980.07
2018-08-12T04:11:50.373Z,980.05
2018-08-12T04:12:50.610Z,980.08
2018-08-12T04:13:50.848Z,980.01
2018-08-12T04:14:51.085Z,979.98
2018-08-12T04:15:51.322Z,980.02
2018-08-12T04:16:51.560Z,980.01
2018-08-12T04:17:51.797Z,980.01
2018-08-12T04:18:52.062Z,980.03
2018-08-12T04:19:52.273Z,980.02
2018-08-12T04:20:52.509Z,980.01
2018-08-12T04:21:52.748Z,980.03
2018-08-12T04:22:52.985Z,980.03
2018-08-12T04:23:53.223Z,980.03
2018-08-12T04:24:53.461Z,980.04
2018-08-12T04:25:53.698Z,980.03
2018-08-12T04:26:53.935Z,980.02
2018-08-12T04:27:54.174Z,979.98
2018-08-12T04:28:54.410Z,980.01
2018-08-12T04:29:54.648Z,980.00
2018-08-12T04:30:54.885Z,979.97
2018-08-12T04:31:55.122Z,979.97
2018-08-12T04:32:55.360Z,979.95
2018-08-12T04:33:55.598Z,979.95
2018-08-12T04:34:55.833Z,979.97
2018-08-12T04:35:56.075Z,979.96
2018-08-12T04:36:56.311Z,979.98
2018-08-12T04:37:56.548Z,979.96
2018-08-12T04:38:56.786Z,979.94
2018-08-12T04:39:57.024Z,979.95
2018-08-12T04:40:57.262Z,979.91
2018-08-12T04:41:57.499Z,979.93
2018-08-12T04:42:57.737Z,979.92
2018-08-12T04:43:57.976Z,979.85
2018-08-12T04:44:58.212Z,979.87
2018-08-12T04:45:58.484Z,979.89
2018-08-12T04:46:58.689Z,979.89
2018-08-12T04:47:58.962Z,979.92
2018-08-12T04:48:59.164Z,979.90
2018-08-12T04:49:59.402Z,979.90
2018-08-12T04:50:59.642Z,979.89
2018-08-12T04:51:59.877Z,979.87
2018-08-12T04:53:00.115Z,979.84
2018-08-12T04:54:00.352Z,979.86
2018-08-12T04:55:00.591Z,979.88
2018-08-12T04:56:00.829Z,979.87
2018-08-12T04:57:01.069Z,979.87
2018-08-12T04:58:01.307Z,979.87
2018-08-12T04:59:01.544Z,979.86
2018-08-12T05:00:01.785Z,979.85
2018-08-12T05:01:02.024Z,979.85
2018-08-12T05:02:02.262Z,979.89
2018-08-12T05:03:02.499Z,979.88
2018-08-12T05:04:02.739Z,979.91
2018-08-12T05:05:02.977Z,979.92
2018-08-12T05:06:03.217Z,979.92
2018-08-12T05:07:03.455Z,979.90
2018-08-12T05:08:03.693Z,979.86
2018-08-12T05:09:03.932Z,979.87
2018-08-12T05:10:04.177Z,979.83
2018-08-12T05:11:04.410Z,979.86
2018-08-12T05:12:04.648Z,979.83
2018-08-12T05:13:04.887Z,979.83
2018-08-12T05:14:05.126Z,979.80
2018-08-12T05:15:05.363Z,979.79
2018-08-12T05:16:05.603Z,979.82
2018-08-12T05:17:05.840Z,979.80
2018-08-12T05:18:06.081Z,979.78
2018-08-12T05:19:06.318Z,979.77
2018-08-12T05:20:06.557Z,979.77
2018-08-12T05:21:06.795Z,979.79
2018-08-12T05:22:07.034Z,979.78
2018-08-12T05:23:07.275Z,979.76
2018-08-12T05:24:07.541Z,979.79
2018-08-12T05:25:07.748Z,979.81
2018-08-12T05:26:07.987Z,979.73
2018-08-12T05:27:08.226Z,979.73
2018-08-12T05:28:08.465Z,979.71
2018-08-12T05:29:08.704Z,979.68
2018-08-12T05:30:08.943Z,979.65
2018-08-12T05:31:09.179Z,979.62
2018-08-12T05:32:09.418Z,979.65
2018-08-12T05:33:09.656Z,979.62
2018-08-12T05:34:09.898Z,979.59
2018-08-12T05:35:10.135Z,979.59
2018-08-12T05:36:10.459Z,979.58
2018-08-12T05:37:10.613Z,979.53
2018-08-12T05:38:10.851Z,979.55
2018-08-12T05:39:11.090Z,979.55
2018-08-12T05:40:11.329Z,979.56
2018-08-12T05:41:11.566Z,979.55
2018-08-12T05:42:11.805Z,979.52
2018-08-12T05:43:12.044Z,979.50
2018-08-12T05:44:12.282Z,979.50
2018-08-12T05:45:12.522Z,979.49
2018-08-12T05:46:12.760Z,979.50
2018-08-12T05:47:13.002Z,979.53
2018-08-12T05:48:13.238Z,979.53
2018-08-12T05:49:13.477Z,979.53
2018-08-12T05:50:13.716Z,979.49
2018-08-12T05:51:13.977Z,979.52
2018-08-12T05:52:14.194Z,979.57
2018-08-12T05:53:14.434Z,979.52
2018-08-12T05:54:14.673Z,979.56
2018-08-12T05:55:14.912Z,979.53
2018-08-12T05:56:15.152Z,979.57
2018-08-12T05:57:15.419Z,979.56
2018-08-12T05:58:15.630Z,979.56
2018-08-12T05:59:15.870Z,979.59
2018-08-12T06:00:16.110Z,979.57
2018-08-12T06:01:16.349Z,979.59
2018-08-12T06:02:16.590Z,979.56
2018-08-12T06:03:16.828Z,979.55
2018-08-12T06:04:17.069Z,979.54
2018-08-12T06:05:17.308Z,979.53
2018-08-12T06:06:17.548Z,979.48
2018-08-12T06:07:17.787Z,979.49
2018-08-12T06:08:18.030Z,979.49
2018-08-12T06:09:18.267Z,979.51
2018-08-12T06:10:18.507Z,979.54
2018-08-12T06:11:18.746Z,979.56
2018-08-12T06:12:18.987Z,979.54
2018-08-12T06:13:19.226Z,979.59
2018-08-12T06:14:19.467Z,979.61
2018-08-12T06:15:19.707Z,979.61
2018-08-12T06:16:19.948Z,979.64
2018-08-12T06:17:20.239Z,979.64
2018-08-12T06:18:20.426Z,979.62
2018-08-12T06:19:20.664Z,979.60
2018-08-12T06:20:20.905Z,979.60
2018-08-12T06:21:21.146Z,979.60
2018-08-12T06:22:21.388Z,979.56
2018-08-12T06:23:21.626Z,979.59
2018-08-12T06:24:21.867Z,979.57
2018-08-12T06:25:22.107Z,979.62
2018-08-12T06:26:22.350Z,979.60
2018-08-12T06:27:22.588Z,979.63
2018-08-12T06:28:22.828Z,979.61
2018-08-12T06:29:23.068Z,979.60
2018-08-12T06:30:23.308Z,979.63
2018-08-12T06:31:23.591Z,979.62
2018-08-12T06:32:23.813Z,979.62
2018-08-12T06:33:24.030Z,979.59
2018-08-12T06:34:24.297Z,979.63
2018-08-12T06:35:24.518Z,979.62
2018-08-12T06:36:24.757Z,979.58
2018-08-12T06:37:24.998Z,979.57
2018-08-12T06:38:25.246Z,979.61
2018-08-12T06:39:25.476Z,979.55
2018-08-12T06:40:25.723Z,979.51
2018-08-12T06:41:25.962Z,979.51
2018-08-12T06:42:26.204Z,979.51
2018-08-12T06:43:26.446Z,979.53
2018-08-12T06:44:26.690Z,979.56
2018-08-12T06:45:26.933Z,979.56
2018-08-12T06:46:27.198Z,979.52
2018-08-12T06:47:27.413Z,979.52
2018-08-12T06:48:27.655Z,979.55
2018-08-12T06:49:27.897Z,979.56
2018-08-12T06:50:28.139Z,979.58
2018-08-12T06:51:28.383Z,979.56
2018-08-12T06:52:28.627Z,979.58
2018-08-12T06:53:28.870Z,979.59
2018-08-12T06:54:29.109Z,979.58
2018-08-12T06:55:29.351Z,979.59
2018-08-12T06:56:29.595Z,979.61
2018-08-12T06:57:29.837Z,979.63
2018-08-12T06:58:30.080Z,979.64
2018-08-12T06:59:30.322Z,979.62
2018-08-12T07:00:30.597Z,979.63
2018-08-12T07:01:30.807Z,979.60
2018-08-12T07:02:31.052Z,979.63
2018-08-12T07:03:31.292Z,979.61
2018-08-12T07:04:31.536Z,979.61
2018-08-12T07:05:31.781Z,979.62
2018-08-12T07:06:32.025Z,979.60
2018-08-12T07:07:32.270Z,979.59
2018-08-12T07:08:32.511Z,979.59
2018-08-12T07:09:32.757Z,979.59
2018-08-12T07:10:32.995Z,979.60
2018-08-12T07:11:33.238Z,979.59
2018-08-12T07:12:33.482Z,979.57
2018-08-12T07:13:33.729Z,979.58
2018-08-12T07:14:33.956Z,979.61
2018-08-12T07:15:34.215Z,979.53
2018-08-12T07:16:34.460Z,979.50
2018-08-12T07:17:34.705Z,979.52
2018-08-12T07:18:34.950Z,979.50
2018-08-12T07:19:35.195Z,979.51
2018-08-12T07:20:35.459Z,979.53
2018-08-12T07:21:35.706Z,979.53
2018-08-12T07:22:35.952Z,979.54
2018-08-12T07:23:36.199Z,979.51
2018-08-12T07:24:36.495Z,979.52
2018-08-12T07:25:36.691Z,979.53
2018-08-12T07:26:36.938Z,979.53
2018-08-12T07:27:37.185Z,979.51
2018-08-12T07:28:37.437Z,979.53
2018-08-12T07:29:37.677Z,979.53
2018-08-12T07:30:37.929Z,979.53
2018-08-12T07:31:38.174Z,979.55
2018-08-12T07:32:38.420Z,979.57
2018-08-12T07:33:38.669Z,979.59
2018-08-12T07:34:38.917Z,979.59
2018-08-12T07:35:39.164Z,979.59
2018-08-12T07:36:39.411Z,979.60
2018-08-12T07:37:39.659Z,979.60
2018-08-12T07:38:39.913Z,979.59
2018-08-12T07:39:40.157Z,979.57
2018-08-12T07:40:40.405Z,979.52
2018-08-12T07:41:40.654Z,979.56
2018-08-12T07:42:40.903Z,979.53
2018-08-12T07:43:41.153Z,979.57
2018-08-12T07:44:41.402Z,979.56
2018-08-12T07:45:41.653Z,979.52
2018-08-12T07:46:41.901Z,979.54
2018-08-12T07:47:42.152Z,979.55
2018-08-12T07:48:42.406Z,979.51
2018-08-12T07:49:42.652Z,979.48
2018-08-12T07:50:42.890Z,979.48
2018-08-12T07:51:43.158Z,979.45
2018-08-12T07:52:43.409Z,979.49
2018-08-12T07:53:43.657Z,979.50
2018-08-12T07:54:43.908Z,979.49
2018-08-12T07:55:44.242Z,979.46
2018-08-12T07:56:44.406Z,979.51
2018-08-12T07:57:44.656Z,979.50
2018-08-12T07:58:44.907Z,979.48
2018-08-12T07:59:45.148Z,979.46
2018-08-12T08:00:45.448Z,979.49
2018-08-12T08:01:45.646Z,979.49
2018-08-12T08:02:45.898Z,979.46
2018-08-12T08:03:46.147Z,979.48
2018-08-12T08:04:46.400Z,979.47
2018-08-12T08:05:46.651Z,979.46
2018-08-12T08:06:46.901Z,979.49
2018-08-12T08:07:47.142Z,979.43
2018-08-12T08:08:47.413Z,979.48
2018-08-12T08:09:47.667Z,979.40
2018-08-12T08:10:47.914Z,979.42
2018-08-12T08:11:48.164Z,979.39
2018-08-12T08:12:48.416Z,979.37
2018-08-12T08:13:48.669Z,979.44
2018-08-12T08:14:48.919Z,979.46
2018-08-12T08:15:49.169Z,979.43
2018-08-12T08:16:49.421Z,979.44
2018-08-12T08:17:49.673Z,979.41
2018-08-12T08:18:49.930Z,979.40
2018-08-12T08:19:50.235Z,979.47
2018-08-12T08:20:50.429Z,979.46
2018-08-12T08:21:50.681Z,979.52
2018-08-12T08:22:50.929Z,979.53
2018-08-12T08:23:51.268Z,979.57
2018-08-12T08:24:51.526Z,979.55
2018-08-12T08:25:51.802Z,979.50
2018-08-12T08:26:52.027Z,979.53
2018-08-12T08:27:52.279Z,979.51
2018-08-12T08:28:52.557Z,979.54
2018-08-12T08:29:52.822Z,979.56
2018-08-12T08:30:53.113Z,979.49
2018-08-12T08:31:53.546Z,979.57
2018-08-12T08:32:53.630Z,979.57
2018-08-12T08:33:53.881Z,979.56
2018-08-12T08:34:54.133Z,979.57
2018-08-12T08:35:54.387Z,979.57
2018-08-12T08:36:54.639Z,979.58
2018-08-12T08:37:54.929Z,979.61
2018-08-12T08:38:55.143Z,979.61
2018-08-12T08:39:55.402Z,979.63
2018-08-12T08:40:55.645Z,979.61
2018-08-12T08:41:55.897Z,979.60
2018-08-12T08:42:56.149Z,979.63
2018-08-12T08:43:56.450Z,979.67
2018-08-12T08:44:56.651Z,979.76
2018-08-12T08:45:56.903Z,979.91
2018-08-12T08:46:57.154Z,979.99
2018-08-12T08:47:57.406Z,980.14
2018-08-12T08:48:57.657Z,980.04
2018-08-12T08:49:57.982Z,979.87
2018-08-12T08:50:58.161Z,979.77
2018-08-12T08:51:58.437Z,979.68
2018-08-12T08:52:58.665Z,979.66
2018-08-12T08:53:58.917Z,979.60
2018-08-12T08:54:59.171Z,979.61
2018-08-12T08:55:59.453Z,979.56
2018-08-12T08:56:59.675Z,979.71
2018-08-12T08:57:59.929Z,979.58
2018-08-12T08:59:00.177Z,979.54
2018-08-12T09:00:00.434Z,979.57
2018-08-12T09:01:00.678Z,979.62
2018-08-12T09:02:00.931Z,979.63
2018-08-12T09:03:01.180Z,979.72
2018-08-12T09:04:01.434Z,979.77
2018-08-12T09:05:01.688Z,979.77
2018-08-12T09:06:01.936Z,979.67
2018-08-12T09:07:02.223Z,979.69
2018-08-12T09:08:02.509Z,979.71
2018-08-12T09:09:02.916Z,979.57
2018-08-12T09:10:03.013Z,979.58
2018-08-12T09:11:03.269Z,979.56
2018-08-12T09:12:03.522Z,979.61
2018-08-12T09:13:03.773Z,979.62
2018-08-12T09:14:04.026Z,979.65
2018-08-12T09:15:04.275Z,979.66
2018-08-12T09:16:04.567Z,979.75
2018-08-12T09:17:04.821Z,979.72
2018-08-12T09:18:05.092Z,979.79
2018-08-12T09:19:05.333Z,979.81
2018-08-12T09:20:05.579Z,979.98
2018-08-12T09:21:05.830Z,980.01
2018-08-12T09:22:06.082Z,980.25
2018-08-12T09:23:06.335Z,980.23
2018-08-12T09:24:06.661Z,980.18
2018-08-12T09:25:06.839Z,980.27
2018-08-12T09:26:07.090Z,980.32
2018-08-12T09:27:07.343Z,980.24
2018-08-12T09:28:08.098Z,980.24
2018-08-12T09:29:07.862Z,980.17
2018-08-12T09:30:08.115Z,980.16
2018-08-12T09:31:08.399Z,979.83
2018-08-12T09:32:08.654Z,979.62
2018-08-12T09:33:08.904Z,979.56
2018-08-12T09:34:09.158Z,979.53
2018-08-12T09:35:09.409Z,979.72
2018-08-12T09:36:09.666Z,979.76
2018-08-12T09:37:09.914Z,979.90
2018-08-12T09:38:10.168Z,980.05
2018-08-12T09:39:10.421Z,979.79
2018-08-12T09:40:10.676Z,979.56
2018-08-12T09:41:10.919Z,979.59
2018-08-12T09:42:11.178Z,979.55
2018-08-12T09:43:11.499Z,979.63
2018-08-12T09:44:11.691Z,980.26
2018-08-12T09:45:11.936Z,980.91
2018-08-12T09:46:12.189Z,980.97
2018-08-12T09:47:12.441Z,980.93
2018-08-12T09:48:12.693Z,980.90
2018-08-12T09:49:12.938Z,980.85
2018-08-12T09:50:13.176Z,980.78
2018-08-12T09:51:13.428Z,980.84
2018-08-12T09:52:13.681Z,980.85
2018-08-12T09:53:14.151Z,980.84
2018-08-12T09:54:14.172Z,980.82
2018-08-12T09:55:14.426Z,980.76
2018-08-12T09:56:14.679Z,980.70
2018-08-12T09:57:14.932Z,980.67
2018-08-12T09:58:15.188Z,980.63
2018-08-12T09:59:15.440Z,980.58
2018-08-12T10:00:15.719Z,980.44
2018-08-12T10:01:15.948Z,980.41
2018-08-12T10:02:16.202Z,980.36
2018-08-12T10:03:16.453Z,980.18
2018-08-12T10:04:16.801Z,980.15
2018-08-12T10:05:17.061Z,980.07
2018-08-12T10:06:17.313Z,980.10
2018-08-12T10:07:17.569Z,979.98
2018-08-12T10:08:17.820Z,979.92
2018-08-12T10:09:18.075Z,979.84
2018-08-12T10:10:18.326Z,979.76
2018-08-12T10:11:18.572Z,979.76
2018-08-12T10:12:18.828Z,979.72
2018-08-12T10:13:19.082Z,979.66
2018-08-12T10:14:19.335Z,979.61
2018-08-12T10:15:19.581Z,979.59
2018-08-12T10:16:19.832Z,979.66
2018-08-12T10:17:20.086Z,979.55
2018-08-12T10:18:20.342Z,979.52
2018-08-12T10:19:20.594Z,979.37
2018-08-12T10:20:20.849Z,979.43
2018-08-12T10:21:21.109Z,979.43
2018-08-12T10:22:21.363Z,979.42
2018-08-12T10:23:21.603Z,979.40
2018-08-12T10:24:21.856Z,979.27
2018-08-12T10:25:22.114Z,979.10
2018-08-12T10:26:22.369Z,978.99
2018-08-12T10:27:22.622Z,978.99
2018-08-12T10:28:22.878Z,978.96
2018-08-12T10:29:23.229Z,979.01
2018-08-12T10:30:23.384Z,978.95
2018-08-12T10:31:23.654Z,978.81
2018-08-12T10:32:23.913Z,978.95
2018-08-12T10:33:24.165Z,979.06
2018-08-12T10:34:24.419Z,979.04
2018-08-12T10:35:24.668Z,978.87
2018-08-12T10:36:24.926Z,978.86
2018-08-12T10:37:25.181Z,978.82
2018-08-12T10:38:25.435Z,978.89
2018-08-12T10:39:25.688Z,978.89
2018-08-12T10:40:25.948Z,978.88
2018-08-12T10:41:26.198Z,978.92
2018-08-12T10:42:26.454Z,978.92
2018-08-12T10:43:26.709Z,978.91
2018-08-12T10:44:27.049Z,978.99
2018-08-12T10:45:27.223Z,979.23
2018-08-12T10:46:27.474Z,979.32
2018-08-12T10:47:27.728Z,979.34
2018-08-12T10:48:27.984Z,979.32
2018-08-12T10:49:28.239Z,979.29
2018-08-12T10:50:28.495Z,979.25
2018-08-12T10:51:28.749Z,979.28
2018-08-12T10:52:29.004Z,979.27
2018-08-12T10:53:29.259Z,979.22
2018-08-12T10:54:29.513Z,979.21
2018-08-12T10:55:29.770Z,979.20
2018-08-12T10:56:30.025Z,979.16
2018-08-12T10:57:30.290Z,979.06
2018-08-12T10:58:30.547Z,979.02
2018-08-12T10:59:30.900Z,978.86
2018-08-12T11:00:31.059Z,978.79
2018-08-12T11:01:31.315Z,978.81
2018-08-12T11:02:31.575Z,978.83
2018-08-12T11:03:31.827Z,978.71
2018-08-12T11:04:32.083Z,978.71
2018-08-12T11:05:32.338Z,978.66
2018-08-12T11:06:32.595Z,978.62
2018-08-12T11:07:32.914Z,978.65
2018-08-12T11:08:33.104Z,978.59
2018-08-12T11:09:33.357Z,978.61
2018-08-12T11:10:33.618Z,978.67
2018-08-12T11:11:33.870Z,978.67
2018-08-12T11:12:34.185Z,978.75
2018-08-12T11:13:34.379Z,978.82
2018-08-12T11:14:34.634Z,978.79
2018-08-12T11:15:34.886Z,978.81
2018-08-12T11:16:35.143Z,978.89
2018-08-12T11:17:35.396Z,978.96
2018-08-12T11:18:35.651Z,978.89
2018-08-12T11:19:35.905Z,978.71
2018-08-12T11:20:36.236Z,978.66
2018-08-12T11:21:36.415Z,978.71
2018-08-12T11:22:36.669Z,978.66
2018-08-12T11:23:36.924Z,978.66
2018-08-12T11:24:37.180Z,978.68
2018-08-12T11:25:37.433Z,978.62
2018-08-12T11:26:37.691Z,978.53
2018-08-12T11:27:37.947Z,978.74
2018-08-12T11:28:38.211Z,978.79
2018-08-12T11:29:38.457Z,978.78
2018-08-12T11:30:38.711Z,978.81
2018-08-12T11:31:38.968Z,978.72
2018-08-12T11:32:39.220Z,978.83
2018-08-12T11:33:39.474Z,978.89
2018-08-12T11:34:39.757Z,978.81
2018-08-12T11:35:39.988Z,978.64
2018-08-12T11:36:40.241Z,978.44
2018-08-12T11:37:40.496Z,978.52
2018-08-12T11:38:40.752Z,978.42
2018-08-12T11:39:41.009Z,978.44
2018-08-12T11:40:41.262Z,978.35
2018-08-12T11:41:41.516Z,978.25
2018-08-12T11:42:41.771Z,978.25
2018-08-12T11:43:42.027Z,978.24
2018-08-12T11:44:42.283Z,978.28
2018-08-12T11:45:42.537Z,978.26
2018-08-12T11:46:42.793Z,978.25
2018-08-12T11:47:43.049Z,978.19
2018-08-12T11:48:43.301Z,978.17
2018-08-12T11:49:43.556Z,978.14
2018-08-12T11:50:43.812Z,978.11
2018-08-12T11:51:44.065Z,978.19
2018-08-12T11:52:44.354Z,978.12
2018-08-12T11:53:44.576Z,978.09
2018-08-12T11:54:44.830Z,978.08
2018-08-12T11:55:45.088Z,978.00
2018-08-12T11:56:45.342Z,977.99
2018-08-12T11:57:45.598Z,977.95
2018-08-12T11:58:45.854Z,977.94
2018-08-12T11:59:46.109Z,978.00
2018-08-12T12:00:46.364Z,978.01
2018-08-12T12:01:46.619Z,977.97
2018-08-12T12:02:46.875Z,977.97
2018-08-12T12:03:47.130Z,977.97
2018-08-12T12:04:47.386Z,977.97
2018-08-12T12:05:47.641Z,977.92
2018-08-12T12:06:47.906Z,977.95
2018-08-12T12:07:48.150Z,977.86
2018-08-12T12:08:48.406Z,977.73
2018-08-12T12:09:48.662Z,977.80
2018-08-12T12:10:48.917Z,977.86
2018-08-12T12:11:49.172Z,977.80
2018-08-12T12:12:49.428Z,977.82
2018-08-12T12:13:49.683Z,977.83
2018-08-12T12:14:49.941Z,977.67
2018-08-12T12:15:50.196Z,977.70
2018-08-12T12:16:50.453Z,977.77
2018-08-12T12:17:50.711Z,977.77
2018-08-12T12:18:50.966Z,977.76
2018-08-12T12:19:51.223Z,977.74
2018-08-12T12:20:51.480Z,977.66
2018-08-12T12:21:51.734Z,977.60
2018-08-12T12:22:51.990Z,977.55
2018-08-12T12:23:52.245Z,977.55
2018-08-12T12:24:52.499Z,977.58
2018-08-12T12:25:52.770Z,977.60
2018-08-12T12:26:53.011Z,977.57
2018-08-12T12:27:53.267Z,977.47
2018-08-12T12:28:53.522Z,977.47
2018-08-12T12:29:53.777Z,977.29
2018-08-12T12:30:54.037Z,977.52
2018-08-12T12:31:54.288Z,977.37